createdAt,value
2022-08-30T00:01:33.113Z,97.98
2022-08-30T00:04:01.362Z,97.84
2022-08-30T00:06:30.986Z,98.03
2022-08-30T00:08:59.753Z,98.15
2022-08-30T00:11:29.024Z,97.74
2022-08-30T00:13:58.036Z,97.74
2022-08-30T00:16:27.324Z,97.37
2022-08-30T00:18:55.907Z,97.10
2022-08-30T00:21:23.646Z,97.82
2022-08-30T00:23:51.187Z,97.02
2022-08-30T00:26:18.761Z,96.70
2022-08-30T00:28:46.308Z,96.29
2022-08-30T00:31:15.569Z,96.31
2022-08-30T00:33:44.839Z,96.35
2022-08-30T00:36:12.472Z,96.64
2022-08-30T00:38:40.030Z,96.75
2022-08-30T00:41:07.903Z,97.16
2022-08-30T00:43:36.847Z,97.47
2022-08-30T00:46:07.689Z,97.09
2022-08-30T00:48:37.676Z,96.74
2022-08-30T00:51:12.753Z,97.38
2022-08-30T00:53:44.105Z,97.27
2022-08-30T00:56:12.260Z,97.02
2022-08-30T00:58:43.981Z,97.18
2022-08-30T01:01:11.951Z,97.74
2022-08-30T01:03:40.763Z,97.26
2022-08-30T01:06:09.942Z,97.36
2022-08-30T01:08:38.589Z,97.59
2022-08-30T01:11:06.525Z,97.39
2022-08-30T01:13:35.173Z,97.30
2022-08-30T01:16:03.689Z,97.77
2022-08-30T01:18:32.252Z,98.19
2022-08-30T01:21:06.801Z,98.57
2022-08-30T01:23:38.418Z,97.85
2022-08-30T01:26:07.926Z,98.02
2022-08-30T01:28:36.201Z,97.88
2022-08-30T01:31:04.525Z,98.16
2022-08-30T01:33:32.407Z,98.74
2022-08-30T01:36:02.421Z,98.58
2022-08-30T01:38:32.112Z,98.89
2022-08-30T01:41:02.244Z,98.90
2022-08-30T01:43:29.885Z,99.27
2022-08-30T01:45:57.520Z,99.28
2022-08-30T01:48:30.183Z,99.25
2022-08-30T01:50:58.818Z,98.96
2022-08-30T01:53:26.494Z,99.00
2022-08-30T01:55:54.097Z,98.71
2022-08-30T01:58:23.470Z,98.29
2022-08-30T02:00:51.647Z,98.35
2022-08-30T02:03:19.911Z,98.18
2022-08-30T02:05:48.284Z,97.94
2022-08-30T02:08:16.256Z,97.88
2022-08-30T02:10:44.557Z,97.45
2022-08-30T02:13:12.195Z,97.44
2022-08-30T02:15:41.559Z,97.15
2022-08-30T02:18:10.613Z,96.97
2022-08-30T02:20:39.373Z,97.19
2022-08-30T02:23:07.075Z,97.15
2022-08-30T02:25:34.761Z,97.09
2022-08-30T02:28:02.296Z,97.72
2022-08-30T02:30:29.874Z,98.24
2022-08-30T02:32:59.005Z,98.68
2022-08-30T02:35:26.681Z,98.70
2022-08-30T02:37:54.466Z,98.92
2022-08-30T02:40:22.254Z,99.16
2022-08-30T02:42:49.930Z,98.77
2022-08-30T02:45:17.597Z,98.46
2022-08-30T02:47:47.286Z,98.79
2022-08-30T02:50:16.324Z,99.06
2022-08-30T02:52:48.153Z,98.95
2022-08-30T02:55:16.486Z,99.16
2022-08-30T02:57:44.653Z,99.12
2022-08-30T03:00:15.241Z,99.83
2022-08-30T03:02:43.162Z,99.45
2022-08-30T03:05:12.914Z,98.81
2022-08-30T03:07:42.264Z,99.29
2022-08-30T03:10:11.248Z,98.85
2022-08-30T03:12:42.395Z,98.71
2022-08-30T03:15:13.495Z,98.94
2022-08-30T03:17:41.240Z,99.12
2022-08-30T03:20:10.557Z,98.81
2022-08-30T03:22:38.117Z,99.20
2022-08-30T03:25:08.309Z,98.77
2022-08-30T03:27:35.855Z,99.19
2022-08-30T03:30:04.010Z,99.11
2022-08-30T03:32:31.565Z,98.62
2022-08-30T03:34:59.522Z,98.39
2022-08-30T03:37:27.639Z,98.28
2022-08-30T03:39:55.345Z,98.59
2022-08-30T03:42:24.773Z,98.74
2022-08-30T03:44:52.421Z,99.08
2022-08-30T03:47:20.818Z,98.72
2022-08-30T03:49:48.412Z,99.38
2022-08-30T03:52:15.982Z,98.86
2022-08-30T03:54:43.850Z,98.36
2022-08-30T03:57:17.630Z,98.44
2022-08-30T03:59:49.275Z,98.27
2022-08-30T04:02:16.901Z,98.32
2022-08-30T04:04:44.445Z,98.22
2022-08-30T04:07:12.001Z,98.59
2022-08-30T04:09:39.619Z,98.39
2022-08-30T04:12:07.421Z,98.36
2022-08-30T04:14:34.948Z,98.31
2022-08-30T04:17:03.938Z,98.74
2022-08-30T04:19:31.506Z,98.71
2022-08-30T04:21:59.207Z,98.71
2022-08-30T04:24:26.914Z,98.97
2022-08-30T04:26:54.481Z,98.86
2022-08-30T04:29:22.125Z,98.72
2022-08-30T04:31:49.702Z,98.84
2022-08-30T04:34:18.897Z,99.03
2022-08-30T04:36:48.233Z,99.59
2022-08-30T04:39:16.121Z,99.39
2022-08-30T04:41:43.725Z,99.56
2022-08-30T04:44:15.829Z,99.93
2022-08-30T04:46:47.464Z,99.65
2022-08-30T04:49:15.161Z,99.79
2022-08-30T04:51:44.338Z,99.84
2022-08-30T04:54:12.163Z,99.74
2022-08-30T04:56:40.122Z,99.85
2022-08-30T04:59:07.765Z,99.54
2022-08-30T05:01:44.616Z,99.48
2022-08-30T05:04:13.544Z,99.45
2022-08-30T05:06:41.189Z,99.47
2022-08-30T05:09:10.177Z,99.26
2022-08-30T05:11:38.747Z,99.33
2022-08-30T05:14:07.076Z,99.36
2022-08-30T05:16:34.689Z,99.18
2022-08-30T05:19:02.773Z,98.99
2022-08-30T05:21:30.569Z,98.91
2022-08-30T05:24:00.463Z,99.22
2022-08-30T05:26:31.238Z,99.14
2022-08-30T05:28:59.226Z,99.29
2022-08-30T05:31:28.754Z,99.96
2022-08-30T05:33:56.825Z,100.00
2022-08-30T05:36:26.700Z,100.00
2022-08-30T05:38:54.843Z,100.00
2022-08-30T05:41:23.098Z,100.00
2022-08-30T05:43:56.071Z,100.00
2022-08-30T05:46:24.065Z,100.00
2022-08-30T05:48:52.697Z,100.00
2022-08-30T05:51:22.155Z,100.00
2022-08-30T05:53:50.381Z,100.00
2022-08-30T05:56:20.113Z,100.00
2022-08-30T05:58:48.169Z,100.00
2022-08-30T06:01:24.669Z,100.00
2022-08-30T06:03:52.721Z,100.00
2022-08-30T06:06:20.385Z,100.00
2022-08-30T06:08:48.825Z,100.00
2022-08-30T06:11:18.430Z,100.00
2022-08-30T06:13:46.741Z,100.00
2022-08-30T06:16:15.497Z,100.00
2022-08-30T06:18:44.847Z,100.00
2022-08-30T06:21:17.549Z,100.00
2022-08-30T06:23:45.471Z,100.00
2022-08-30T06:26:13.135Z,100.00
2022-08-30T06:28:40.827Z,100.00
2022-08-30T06:31:09.253Z,100.00
2022-08-30T06:33:37.446Z,100.00
2022-08-30T06:36:07.253Z,100.00
2022-08-30T06:38:35.472Z,100.00
2022-08-30T06:41:06.669Z,100.00
2022-08-30T06:43:34.427Z,100.00
2022-08-30T06:46:03.317Z,100.00
2022-08-30T06:48:30.909Z,100.00
2022-08-30T06:50:59.141Z,100.00
2022-08-30T06:53:29.571Z,100.00
2022-08-30T06:56:00.019Z,99.78
2022-08-30T06:58:28.180Z,98.74
2022-08-30T07:00:55.869Z,98.57
2022-08-30T07:03:23.812Z,99.68
2022-08-30T07:05:51.499Z,99.13
2022-08-30T07:08:19.133Z,99.23
2022-08-30T07:10:48.005Z,98.28
2022-08-30T07:13:15.701Z,98.50
2022-08-30T07:15:44.712Z,98.06
2022-08-30T07:18:31.416Z,97.75
2022-08-30T07:20:59.610Z,96.36
2022-08-30T07:23:27.138Z,96.36
2022-08-30T07:25:56.039Z,95.51
2022-08-30T07:28:23.655Z,96.26
2022-08-30T07:30:51.609Z,95.73
2022-08-30T07:33:19.426Z,94.06
2022-08-30T07:35:47.120Z,94.54
2022-08-30T07:38:14.764Z,93.60
2022-08-30T07:40:42.891Z,90.81
2022-08-30T07:43:11.826Z,90.69
2022-08-30T07:45:39.603Z,91.06
2022-08-30T07:48:07.457Z,89.58
2022-08-30T07:50:35.039Z,90.10
2022-08-30T07:53:03.411Z,90.50
2022-08-30T07:55:32.325Z,88.66
2022-08-30T07:57:59.945Z,90.37
2022-08-30T08:00:28.933Z,89.04
2022-08-30T08:02:56.553Z,89.57
2022-08-30T08:05:24.908Z,88.85
2022-08-30T08:07:52.608Z,89.13
2022-08-30T08:10:20.220Z,87.05
2022-08-30T08:12:47.869Z,85.29
2022-08-30T08:15:15.924Z,85.73
2022-08-30T08:17:44.855Z,85.53
2022-08-30T08:20:12.583Z,86.37
2022-08-30T08:22:40.381Z,85.10
2022-08-30T08:25:08.634Z,85.20
2022-08-30T08:27:36.214Z,85.81
2022-08-30T08:30:04.318Z,84.77
2022-08-30T08:32:31.849Z,82.19
2022-08-30T08:35:00.890Z,81.06
2022-08-30T08:37:28.692Z,81.24
2022-08-30T08:39:56.426Z,81.45
2022-08-30T08:42:27.869Z,81.66
2022-08-30T08:44:59.075Z,81.99
2022-08-30T08:47:32.019Z,81.50
2022-08-30T08:50:04.413Z,81.79
2022-08-30T08:53:06.914Z,79.34
2022-08-30T08:55:35.522Z,78.82
2022-08-30T08:58:03.305Z,79.11
2022-08-30T09:00:33.073Z,80.41
2022-08-30T09:03:02.970Z,82.39
2022-08-30T09:05:36.255Z,80.01
2022-08-30T09:08:09.749Z,81.42
2022-08-30T09:10:50.423Z,81.00
2022-08-30T09:13:19.138Z,80.77
2022-08-30T09:15:53.701Z,82.43
2022-08-30T09:18:41.751Z,79.36
2022-08-30T09:21:11.847Z,77.38
2022-08-30T09:23:48.798Z,75.33
2022-08-30T09:26:16.597Z,77.33
2022-08-30T09:28:46.701Z,74.47
2022-08-30T09:31:21.033Z,75.80
2022-08-30T09:33:55.517Z,74.20
2022-08-30T09:36:27.611Z,75.43
2022-08-30T09:39:01.695Z,75.67
2022-08-30T09:41:38.357Z,73.10
2022-08-30T09:44:09.083Z,74.04
2022-08-30T09:46:45.334Z,73.50
2022-08-30T09:49:30.801Z,73.49
2022-08-30T09:52:07.949Z,70.39
2022-08-30T09:54:39.649Z,69.09
2022-08-30T09:57:12.975Z,71.22
2022-08-30T09:59:45.911Z,69.54
2022-08-30T10:02:28.891Z,73.25
2022-08-30T10:05:04.103Z,69.77
2022-08-30T10:07:36.366Z,67.58
2022-08-30T10:10:07.582Z,69.72
2022-08-30T10:12:42.966Z,66.76
2022-08-30T10:15:14.977Z,68.28
2022-08-30T10:17:49.072Z,67.15
2022-08-30T10:20:21.858Z,65.00
2022-08-30T10:22:53.609Z,64.27
2022-08-30T10:25:29.610Z,67.44
2022-08-30T10:28:03.153Z,64.83
2022-08-30T10:30:32.173Z,64.26
2022-08-30T10:33:03.069Z,63.30
2022-08-30T10:35:38.594Z,66.92
2022-08-30T10:38:11.607Z,64.61
2022-08-30T10:40:58.744Z,61.04
2022-08-30T10:43:32.510Z,64.73
2022-08-30T10:46:02.917Z,62.24
2022-08-30T10:48:33.523Z,60.77
2022-08-30T10:51:07.021Z,62.14
2022-08-30T10:53:42.117Z,61.63
2022-08-30T10:56:13.190Z,60.78
2022-08-30T10:58:42.274Z,58.93
2022-08-30T11:01:26.704Z,60.63
2022-08-30T11:04:29.657Z,57.93
2022-08-30T11:07:05.878Z,57.15
2022-08-30T11:10:03.296Z,60.14
2022-08-30T11:12:34.630Z,60.29
2022-08-30T11:15:14.603Z,57.16
2022-08-30T11:17:47.051Z,57.27
2022-08-30T11:20:25.407Z,55.75
2022-08-30T11:23:21.228Z,57.13
2022-08-30T11:25:55.195Z,55.90
2022-08-30T11:29:16.424Z,57.07
2022-08-30T11:31:44.634Z,58.17
2022-08-30T11:34:52.827Z,54.50
2022-08-30T11:37:35.867Z,55.61
2022-08-30T11:40:17.287Z,56.37
2022-08-30T11:42:49.486Z,55.07
2022-08-30T11:45:52.210Z,54.92
2022-08-30T11:48:53.428Z,54.24
2022-08-30T11:52:08.226Z,55.12
2022-08-30T11:54:52.776Z,52.39
2022-08-30T11:57:25.335Z,53.42
2022-08-30T12:00:05.448Z,50.90
2022-08-30T12:02:48.487Z,51.90
2022-08-30T12:05:51.692Z,51.06
2022-08-30T12:08:44.737Z,50.95
2022-08-30T12:11:46.024Z,48.30
2022-08-30T12:14:57.464Z,51.26
2022-08-30T12:17:48.518Z,50.70
2022-08-30T12:20:23.534Z,49.12
2022-08-30T12:22:52.428Z,48.93
2022-08-30T12:25:28.958Z,47.82
2022-08-30T12:28:12.359Z,46.33
2022-08-30T12:30:40.843Z,45.64
2022-08-30T12:33:14.101Z,47.24
2022-08-30T12:35:43.777Z,46.41
2022-08-30T12:38:18.160Z,46.34
2022-08-30T12:40:54.837Z,47.39
2022-08-30T12:43:38.802Z,45.87
2022-08-30T12:46:10.858Z,45.97
2022-08-30T12:48:42.453Z,45.44
2022-08-30T12:51:26.827Z,44.14
2022-08-30T12:53:55.766Z,42.49
2022-08-30T12:56:35.077Z,42.91
2022-08-30T12:59:11.086Z,44.49
2022-08-30T13:01:38.870Z,45.72
2022-08-30T13:04:20.378Z,46.19
2022-08-30T13:06:51.288Z,49.99
2022-08-30T13:09:24.779Z,48.60
2022-08-30T13:11:52.506Z,48.67
2022-08-30T13:14:28.377Z,49.87
2022-08-30T13:17:06.501Z,51.97
2022-08-30T13:19:37.729Z,53.48
2022-08-30T13:22:07.304Z,53.65
2022-08-30T13:24:35.287Z,55.42
2022-08-30T13:27:06.507Z,50.85
2022-08-30T13:29:34.158Z,51.82
2022-08-30T13:32:02.017Z,49.63
2022-08-30T13:34:32.994Z,46.17
2022-08-30T13:37:02.301Z,46.02
2022-08-30T13:39:30.493Z,46.96
2022-08-30T13:42:31.799Z,47.03
2022-08-30T13:44:47.866Z,47.06
2022-08-30T13:47:34.766Z,46.91
2022-08-30T13:50:03.045Z,44.56
2022-08-30T13:52:32.120Z,46.23
2022-08-30T13:55:00.199Z,45.42
2022-08-30T14:00:19.678Z,44.04
2022-08-30T14:02:54.192Z,43.56
2022-08-30T14:11:02.001Z,43.90
2022-08-30T14:13:30.502Z,45.09
2022-08-30T14:18:46.509Z,41.46
2022-08-30T14:21:14.163Z,41.77
2022-08-30T14:23:43.469Z,42.11
2022-08-30T14:26:14.972Z,40.70
2022-08-30T14:28:44.934Z,40.70
2022-08-30T14:31:12.899Z,42.79
2022-08-30T14:33:41.114Z,43.70
2022-08-30T14:36:13.062Z,44.62
2022-08-30T14:38:44.889Z,45.58
2022-08-30T14:41:12.758Z,46.26
2022-08-30T14:43:41.443Z,48.08
2022-08-30T14:46:10.305Z,48.00
2022-08-30T14:48:38.781Z,47.64
2022-08-30T14:51:16.613Z,48.31
2022-08-30T14:53:46.199Z,45.67
2022-08-30T14:56:15.959Z,45.54
2022-08-30T14:58:43.873Z,46.02
2022-08-30T15:01:13.246Z,43.37
2022-08-30T15:03:42.206Z,40.96
2022-08-30T15:06:10.328Z,41.74
2022-08-30T15:08:39.395Z,41.21
2022-08-30T15:11:10.741Z,39.70
2022-08-30T15:13:42.529Z,40.29
2022-08-30T15:16:11.665Z,38.85
2022-08-30T15:18:39.569Z,37.61
2022-08-30T15:21:09.624Z,38.07
2022-08-30T15:23:40.810Z,37.95
2022-08-30T15:26:10.029Z,40.00
2022-08-30T15:28:37.956Z,41.71
2022-08-30T15:31:08.973Z,42.17
2022-08-30T15:33:37.392Z,42.14
2022-08-30T15:36:06.296Z,43.60
2022-08-30T15:38:34.622Z,44.16
2022-08-30T15:41:04.438Z,46.12
2022-08-30T15:43:33.938Z,46.26
2022-08-30T15:46:15.896Z,45.33
2022-08-30T15:48:45.731Z,43.64
2022-08-30T15:51:14.681Z,42.19
2022-08-30T15:53:42.184Z,41.85
2022-08-30T15:56:10.641Z,40.23
2022-08-30T15:58:40.418Z,41.21
2022-08-30T16:01:09.267Z,41.40
2022-08-30T16:03:40.250Z,42.87
2022-08-30T16:06:11.856Z,42.11
2022-08-30T16:08:39.577Z,43.97
2022-08-30T16:11:07.502Z,44.31
2022-08-30T16:13:35.222Z,44.25
2022-08-30T16:16:06.192Z,45.92
2022-08-30T16:18:34.678Z,45.86
2022-08-30T16:21:03.825Z,45.71
2022-08-30T16:23:33.403Z,44.58
2022-08-30T16:26:03.370Z,45.60
2022-08-30T16:28:32.239Z,45.96
2022-08-30T16:30:59.981Z,46.86
2022-08-30T16:33:33.381Z,46.90
2022-08-30T16:36:01.081Z,47.28
2022-08-30T16:38:29.018Z,47.88
2022-08-30T16:40:56.909Z,49.26
2022-08-30T16:43:25.302Z,49.99
2022-08-30T16:45:53.780Z,51.30
2022-08-30T16:48:21.498Z,55.29
2022-08-30T16:50:50.417Z,54.47
2022-08-30T16:53:18.218Z,53.31
2022-08-30T16:55:45.926Z,53.91
2022-08-30T16:58:28.832Z,55.66
2022-08-30T17:00:56.505Z,52.86
2022-08-30T17:03:24.189Z,52.76
2022-08-30T17:05:53.297Z,52.42
2022-08-30T17:08:24.812Z,53.78
2022-08-30T17:10:52.442Z,54.51
2022-08-30T17:13:20.373Z,55.33
2022-08-30T17:15:50.545Z,55.07
2022-08-30T17:18:19.289Z,54.33
2022-08-30T17:20:47.029Z,55.16
2022-08-30T17:23:16.244Z,54.07
2022-08-30T17:25:44.062Z,55.27
2022-08-30T17:28:11.932Z,55.51
2022-08-30T17:30:39.446Z,56.10
2022-08-30T17:33:08.397Z,56.18
2022-08-30T17:35:36.143Z,55.01
2022-08-30T17:38:03.997Z,55.57
2022-08-30T17:40:32.929Z,54.61
2022-08-30T17:43:02.694Z,55.23
2022-08-30T17:45:30.369Z,55.50
2022-08-30T17:48:02.576Z,56.29
2022-08-30T17:50:33.272Z,55.86
2022-08-30T17:53:01.148Z,57.51
2022-08-30T17:55:30.852Z,58.81
2022-08-30T17:58:00.479Z,60.54
2022-08-30T18:00:28.201Z,62.03
2022-08-30T18:02:57.611Z,64.83
2022-08-30T18:05:25.558Z,66.33
2022-08-30T18:07:53.216Z,68.34
2022-08-30T18:10:30.445Z,68.54
2022-08-30T18:13:03.357Z,70.74
2022-08-30T18:15:30.883Z,71.32
2022-08-30T18:17:58.433Z,70.61
2022-08-30T18:20:26.470Z,71.95
2022-08-30T18:22:54.513Z,72.95
2022-08-30T18:25:22.410Z,72.79
2022-08-30T18:27:58.767Z,73.80
2022-08-30T18:30:33.985Z,73.94
2022-08-30T18:33:02.598Z,74.61
2022-08-30T18:35:30.776Z,76.74
2022-08-30T18:37:58.561Z,76.35
2022-08-30T18:40:26.311Z,76.49
2022-08-30T18:42:54.122Z,79.23
2022-08-30T18:45:23.773Z,79.11
2022-08-30T18:47:52.677Z,79.82
2022-08-30T18:50:20.588Z,79.43
2022-08-30T18:52:48.477Z,79.58
2022-08-30T18:55:16.190Z,79.97
2022-08-30T18:57:44.569Z,82.59
2022-08-30T19:00:14.808Z,80.83
2022-08-30T19:02:43.501Z,81.05
2022-08-30T19:05:13.239Z,82.58
2022-08-30T19:07:40.861Z,82.13
2022-08-30T19:10:08.925Z,81.94
2022-08-30T19:12:40.086Z,83.21
2022-08-30T19:15:10.905Z,83.60
2022-08-30T19:17:40.646Z,84.66
2022-08-30T19:20:14.196Z,84.29
2022-08-30T19:23:05.828Z,85.20
2022-08-30T19:25:29.987Z,85.34
2022-08-30T19:27:57.705Z,85.76
2022-08-30T19:30:29.752Z,85.63
2022-08-30T19:32:57.748Z,85.33
2022-08-30T19:35:26.869Z,85.55
2022-08-30T19:37:57.994Z,86.97
2022-08-30T19:40:25.951Z,85.88
2022-08-30T19:42:53.689Z,85.98
2022-08-30T19:45:22.648Z,87.27
2022-08-30T19:47:51.886Z,86.24
2022-08-30T19:50:21.075Z,86.46
2022-08-30T19:52:54.078Z,87.52
2022-08-30T19:55:23.761Z,87.73
2022-08-30T19:57:55.975Z,87.82
2022-08-30T20:00:23.927Z,87.41
2022-08-30T20:02:52.026Z,87.29
2022-08-30T20:05:21.403Z,87.87
2022-08-30T20:07:51.092Z,87.79
2022-08-30T20:10:20.450Z,88.29
2022-08-30T20:12:49.848Z,87.58
2022-08-30T20:15:18.770Z,87.58
2022-08-30T20:20:36.950Z,87.38
2022-08-30T20:23:06.562Z,86.86
2022-08-30T20:25:36.777Z,87.54
2022-08-30T20:28:04.917Z,87.13
2022-08-30T20:30:33.216Z,86.43
2022-08-30T20:33:06.975Z,86.72
2022-08-30T20:35:38.910Z,85.87
2022-08-30T20:38:07.913Z,86.11
2022-08-30T20:40:37.134Z,86.20
2022-08-30T20:43:05.678Z,86.62
2022-08-30T20:45:34.269Z,86.64
2022-08-30T20:48:06.257Z,86.42
2022-08-30T20:50:33.813Z,86.30
2022-08-30T20:53:01.508Z,86.26
2022-08-30T20:55:30.605Z,85.82
2022-08-30T20:57:58.213Z,85.97
2022-08-30T21:00:26.568Z,85.94
2022-08-30T21:02:54.374Z,85.89
2022-08-30T21:05:22.053Z,86.84
2022-08-30T21:07:49.625Z,86.90
2022-08-30T21:10:22.571Z,86.57
2022-08-30T21:12:52.418Z,86.58
2022-08-30T21:15:36.878Z,86.46
2022-08-30T21:18:05.869Z,86.58
2022-08-30T21:20:33.739Z,86.85
2022-08-30T21:23:01.266Z,86.78
2022-08-30T21:25:29.009Z,86.58
2022-08-30T21:27:57.905Z,87.35
2022-08-30T21:30:25.548Z,87.57
2022-08-30T21:32:53.049Z,88.29
2022-08-30T21:35:38.341Z,88.20
2022-08-30T21:38:08.737Z,87.60
2022-08-30T21:40:36.499Z,86.92
2022-08-30T21:43:07.420Z,86.45
2022-08-30T21:45:38.134Z,86.78
2022-08-30T21:48:06.033Z,86.33
2022-08-30T21:50:33.683Z,86.53
2022-08-30T21:53:01.527Z,86.03
2022-08-30T21:55:29.030Z,86.11
2022-08-30T21:57:56.559Z,86.02
2022-08-30T22:00:25.634Z,85.21
2022-08-30T22:02:53.588Z,85.56
2022-08-30T22:05:21.259Z,85.33
2022-08-30T22:07:48.806Z,85.08
2022-08-30T22:10:16.615Z,85.05
2022-08-30T22:12:44.210Z,84.65
2022-08-30T22:15:12.117Z,84.91
2022-08-30T22:17:41.055Z,85.83
2022-08-30T22:20:09.741Z,85.56
2022-08-30T22:22:37.871Z,85.90
2022-08-30T22:25:06.157Z,85.42
2022-08-30T22:27:34.591Z,85.00
2022-08-30T22:30:02.151Z,84.71
2022-08-30T22:32:29.910Z,84.58
2022-08-30T22:34:58.959Z,84.63
2022-08-30T22:37:26.499Z,83.84
2022-08-30T22:39:54.150Z,83.56
2022-08-30T22:42:21.833Z,83.37
2022-08-30T22:44:49.473Z,83.36
2022-08-30T22:47:17.012Z,83.81
2022-08-30T22:49:44.778Z,83.64
2022-08-30T22:52:14.270Z,83.96
2022-08-30T22:54:41.910Z,83.83
2022-08-30T22:57:14.722Z,83.77
2022-08-30T22:59:42.310Z,83.61
2022-08-30T23:02:09.839Z,83.89
2022-08-30T23:04:38.013Z,84.34
2022-08-30T23:07:05.679Z,83.76
2022-08-30T23:09:34.601Z,84.23
2022-08-30T23:12:02.309Z,85.39
2022-08-30T23:14:30.124Z,85.67
2022-08-30T23:16:57.743Z,85.76
2022-08-30T23:19:26.631Z,85.75
2022-08-30T23:21:54.103Z,86.93
2022-08-30T23:24:39.225Z,87.50
2022-08-30T23:27:25.900Z,87.03
2022-08-30T23:30:11.034Z,87.54
2022-08-30T23:32:56.269Z,88.48
2022-08-30T23:35:41.440Z,88.70
2022-08-30T23:38:26.588Z,89.27
2022-08-30T23:41:11.962Z,89.35
2022-08-30T23:43:58.601Z,89.72
2022-08-30T23:46:44.032Z,89.61
2022-08-30T23:49:29.445Z,90.96
2022-08-30T23:52:15.161Z,90.70
2022-08-30T23:55:00.251Z,91.00
2022-08-30T23:57:46.054Z,90.92
